createdAt,value
2018-09-25T00:00:45.319Z,51.00
2018-09-25T00:02:16.889Z,55.50
2018-09-25T00:03:48.463Z,52.80
2018-09-25T00:05:20.035Z,54.40
2018-09-25T00:08:23.178Z,57.70
2018-09-25T00:09:54.751Z,57.40
2018-09-25T00:11:26.324Z,57.80
2018-09-25T00:12:57.897Z,54.20
2018-09-25T00:14:29.469Z,54.70
2018-09-25T00:16:01.042Z,55.30
2018-09-25T00:17:32.715Z,51.90
2018-09-25T00:19:04.191Z,57.50
2018-09-25T00:20:35.758Z,56.70
2018-09-25T00:22:07.331Z,56.70
2018-09-25T00:23:38.904Z,53.70
2018-09-25T00:25:10.475Z,52.70
2018-09-25T00:26:42.046Z,54.00
2018-09-25T00:28:14.972Z,50.60
2018-09-25T00:29:45.621Z,54.50
2018-09-25T00:31:16.766Z,53.30
2018-09-25T00:32:48.338Z,49.20
2018-09-25T00:34:19.908Z,50.50
2018-09-25T00:35:51.681Z,48.50
2018-09-25T00:37:23.054Z,49.00
2018-09-25T00:38:55.147Z,47.20
2018-09-25T00:40:26.198Z,51.40
2018-09-25T00:41:57.771Z,51.20
2018-09-25T00:43:29.343Z,46.10
2018-09-25T00:45:00.919Z,48.10
2018-09-25T00:46:32.495Z,47.70
2018-09-25T00:48:04.060Z,48.30
2018-09-25T00:49:35.633Z,47.90
2018-09-25T00:51:07.205Z,48.60
2018-09-25T00:52:38.779Z,45.00
2018-09-25T00:54:10.461Z,50.60
2018-09-25T00:55:41.924Z,46.60
2018-09-25T00:57:13.498Z,48.50
2018-09-25T00:58:45.076Z,45.90
2018-09-25T01:00:16.744Z,50.10
2018-09-25T01:03:19.809Z,47.60
2018-09-25T01:04:51.881Z,47.80
2018-09-25T01:06:23.083Z,47.80
2018-09-25T01:07:54.512Z,50.30
2018-09-25T01:09:26.079Z,49.10
2018-09-25T01:12:29.324Z,48.40
2018-09-25T01:14:00.797Z,51.70
2018-09-25T01:15:32.373Z,48.30
2018-09-25T01:17:03.941Z,48.80
2018-09-25T01:18:35.515Z,53.60
2018-09-25T01:20:07.088Z,49.80
2018-09-25T01:21:38.661Z,50.20
2018-09-25T01:23:10.248Z,48.50
2018-09-25T01:24:41.806Z,47.50
2018-09-25T01:26:13.377Z,47.00
2018-09-25T01:27:44.950Z,47.40
2018-09-25T01:29:16.522Z,44.60
2018-09-25T01:30:48.195Z,47.30
2018-09-25T01:32:19.669Z,47.20
2018-09-25T01:33:51.239Z,49.40
2018-09-25T01:35:22.812Z,50.00
2018-09-25T01:36:54.385Z,46.80
2018-09-25T01:38:25.957Z,48.50
2018-09-25T01:39:57.532Z,49.80
2018-09-25T01:41:29.110Z,44.90
2018-09-25T01:43:00.678Z,46.30
2018-09-25T01:44:32.247Z,46.90
2018-09-25T01:46:04.235Z,46.50
2018-09-25T01:47:35.393Z,45.30
2018-09-25T01:49:07.068Z,44.90
2018-09-25T01:50:38.538Z,47.70
2018-09-25T01:52:10.113Z,46.30
2018-09-25T01:53:41.988Z,46.60
2018-09-25T01:55:13.265Z,46.50
2018-09-25T01:56:44.829Z,43.00
2018-09-25T01:58:16.401Z,44.90
2018-09-25T02:01:19.549Z,41.50
2018-09-25T02:02:51.427Z,40.80
2018-09-25T02:04:22.698Z,41.10
2018-09-25T02:05:54.311Z,35.40
2018-09-25T02:07:26.002Z,39.20
2018-09-25T02:08:57.410Z,40.60
2018-09-25T02:10:28.993Z,40.10
2018-09-25T02:12:00.556Z,38.00
2018-09-25T02:13:32.277Z,37.20
2018-09-25T02:15:03.700Z,40.00
2018-09-25T02:16:35.272Z,35.30
2018-09-25T02:18:06.844Z,37.20
2018-09-25T02:19:38.420Z,38.30
2018-09-25T02:21:10.150Z,39.10
2018-09-25T02:22:41.564Z,35.00
2018-09-25T02:24:13.138Z,34.50
2018-09-25T02:25:45.579Z,38.80
2018-09-25T02:27:16.277Z,37.40
2018-09-25T02:28:47.849Z,40.00
2018-09-25T02:30:19.425Z,38.80
2018-09-25T02:31:51.295Z,39.70
2018-09-25T02:33:22.568Z,38.10
2018-09-25T02:36:25.710Z,45.10
2018-09-25T02:37:57.308Z,47.90
2018-09-25T02:39:28.863Z,47.60
2018-09-25T02:41:00.426Z,45.50
2018-09-25T02:42:31.998Z,45.70
2018-09-25T02:44:03.820Z,49.90
2018-09-25T02:45:35.146Z,46.10
2018-09-25T02:47:06.713Z,46.90
2018-09-25T02:48:38.284Z,48.40
2018-09-25T02:50:09.859Z,50.60
2018-09-25T02:51:41.427Z,52.10
2018-09-25T02:53:13.003Z,53.90
2018-09-25T02:54:44.571Z,52.70
2018-09-25T02:56:16.143Z,53.90
2018-09-25T02:59:19.288Z,54.00
2018-09-25T03:00:51.378Z,54.70
2018-09-25T03:02:22.629Z,54.00
2018-09-25T03:03:54.001Z,54.40
2018-09-25T03:05:25.573Z,56.40
2018-09-25T03:06:57.155Z,55.20
2018-09-25T03:08:28.715Z,60.40
2018-09-25T03:10:00.288Z,60.00
2018-09-25T03:11:31.858Z,55.50
2018-09-25T03:13:03.490Z,61.20
2018-09-25T03:14:35.001Z,56.80
2018-09-25T03:16:06.575Z,56.00
2018-09-25T03:17:38.151Z,50.60
2018-09-25T03:19:09.737Z,54.70
2018-09-25T03:20:41.390Z,54.30
2018-09-25T03:22:12.860Z,52.40
2018-09-25T03:25:16.013Z,47.90
2018-09-25T03:26:47.576Z,44.40
2018-09-25T03:28:19.148Z,45.50
2018-09-25T03:29:50.720Z,44.90
2018-09-25T03:31:22.292Z,41.40
2018-09-25T03:32:53.980Z,45.90
2018-09-25T03:34:25.436Z,47.80
2018-09-25T03:35:57.051Z,43.20
2018-09-25T03:37:28.582Z,45.10
2018-09-25T03:39:00.254Z,45.90
2018-09-25T03:40:31.726Z,46.40
2018-09-25T03:42:03.301Z,47.20
2018-09-25T03:43:34.872Z,44.90
2018-09-25T03:45:06.447Z,46.00
2018-09-25T03:46:38.016Z,45.60
2018-09-25T03:48:09.590Z,45.00
2018-09-25T03:49:41.165Z,41.00
2018-09-25T03:51:12.734Z,42.30
2018-09-25T03:52:44.310Z,43.90
2018-09-25T03:54:15.880Z,42.40
2018-09-25T03:55:47.981Z,43.20
2018-09-25T03:57:19.125Z,43.80
2018-09-25T03:58:50.598Z,43.00
2018-09-25T04:00:22.181Z,42.70
2018-09-25T04:01:53.744Z,41.90
2018-09-25T04:03:25.415Z,47.10
2018-09-25T04:06:28.461Z,45.70
2018-09-25T04:08:00.034Z,47.10
2018-09-25T04:09:31.605Z,45.00
2018-09-25T04:11:03.179Z,45.70
2018-09-25T04:12:34.752Z,48.90
2018-09-25T04:14:06.323Z,47.10
2018-09-25T04:15:38.031Z,47.20
2018-09-25T04:17:09.468Z,48.60
2018-09-25T04:18:41.039Z,48.70
2018-09-25T04:20:12.614Z,47.70
2018-09-25T04:21:44.187Z,55.40
2018-09-25T04:23:15.757Z,51.30
2018-09-25T04:24:47.332Z,58.20
2018-09-25T04:26:19.052Z,52.60
2018-09-25T04:27:50.474Z,52.40
2018-09-25T04:29:22.048Z,54.20
2018-09-25T04:30:53.824Z,57.00
2018-09-25T04:32:25.192Z,53.30
2018-09-25T04:33:57.165Z,54.70
2018-09-25T04:35:28.337Z,55.90
2018-09-25T04:36:59.929Z,51.80
2018-09-25T04:38:31.484Z,53.30
2018-09-25T04:40:03.056Z,54.90
2018-09-25T04:41:34.627Z,55.80
2018-09-25T04:43:06.205Z,55.40
2018-09-25T04:44:37.772Z,56.60
2018-09-25T04:46:09.345Z,53.10
2018-09-25T04:47:40.951Z,52.70
2018-09-25T04:49:12.492Z,50.90
2018-09-25T04:50:44.062Z,47.10
2018-09-25T04:52:15.736Z,44.70
2018-09-25T04:53:47.207Z,49.90
2018-09-25T04:55:18.780Z,46.00
2018-09-25T04:56:50.879Z,46.50
2018-09-25T04:58:21.944Z,46.90
2018-09-25T04:59:53.499Z,39.90
2018-09-25T05:01:25.069Z,42.60
2018-09-25T05:02:56.643Z,40.00
2018-09-25T05:04:28.519Z,40.40
2018-09-25T05:05:59.787Z,40.10
2018-09-25T05:07:31.360Z,37.30
2018-09-25T05:09:02.934Z,36.80
2018-09-25T05:10:34.605Z,33.10
2018-09-25T05:12:06.085Z,30.40
2018-09-25T05:13:37.654Z,32.20
2018-09-25T05:15:09.223Z,28.80
2018-09-25T05:16:40.946Z,31.20
2018-09-25T05:18:12.387Z,27.80
2018-09-25T05:19:43.947Z,24.00
2018-09-25T05:21:15.515Z,25.40
2018-09-25T05:22:47.084Z,26.40
2018-09-25T05:24:18.657Z,24.30
2018-09-25T05:25:50.234Z,20.90
2018-09-25T05:27:21.801Z,21.00
2018-09-25T05:28:53.474Z,20.20
2018-09-25T05:30:24.947Z,19.70
2018-09-25T05:31:56.519Z,17.80
2018-09-25T05:33:28.092Z,17.70
2018-09-25T05:34:59.765Z,17.00
2018-09-25T05:36:31.241Z,17.80
2018-09-25T05:38:02.817Z,16.60
2018-09-25T05:39:34.382Z,15.80
2018-09-25T05:41:05.987Z,15.60
2018-09-25T05:42:37.528Z,20.80
2018-09-25T05:44:09.099Z,14.40
2018-09-25T05:45:41.194Z,15.10
2018-09-25T05:47:12.343Z,18.60
2018-09-25T05:48:43.834Z,16.80
2018-09-25T05:50:15.389Z,18.20
2018-09-25T05:51:46.961Z,16.70
2018-09-25T05:53:18.536Z,15.70
2018-09-25T05:54:50.106Z,15.30
2018-09-25T05:56:21.680Z,15.80
2018-09-25T05:57:53.257Z,17.00
2018-09-25T05:59:24.824Z,19.00
2018-09-25T06:00:56.429Z,16.80
2018-09-25T06:02:27.979Z,17.50
2018-09-25T06:03:59.541Z,17.30
2018-09-25T06:07:03.090Z,18.10
2018-09-25T06:08:34.260Z,16.90
2018-09-25T06:10:05.833Z,16.20
2018-09-25T06:11:37.404Z,16.30
2018-09-25T06:13:08.979Z,14.40
2018-09-25T06:14:40.549Z,14.10
2018-09-25T06:16:12.122Z,15.20
2018-09-25T06:19:15.418Z,16.10
2018-09-25T06:20:46.842Z,15.70
2018-09-25T06:22:18.413Z,20.70
2018-09-25T06:23:49.986Z,16.90
2018-09-25T06:25:21.669Z,15.40
2018-09-25T06:26:53.655Z,15.60
2018-09-25T06:28:24.702Z,18.50
2018-09-25T06:29:56.275Z,17.10
2018-09-25T06:31:27.850Z,16.60
2018-09-25T06:32:59.941Z,17.10
2018-09-25T06:34:31.000Z,16.00
2018-09-25T06:36:02.567Z,16.70
2018-09-25T06:37:34.438Z,15.90
2018-09-25T06:39:05.712Z,18.10
2018-09-25T06:40:37.283Z,17.70
2018-09-25T06:42:08.858Z,15.20
2018-09-25T06:43:40.579Z,18.00
2018-09-25T06:45:12.001Z,15.70
2018-09-25T06:46:43.574Z,14.40
2018-09-25T06:48:15.158Z,17.40
2018-09-25T06:49:47.021Z,15.50
2018-09-25T06:51:18.291Z,15.50
2018-09-25T06:52:49.864Z,15.70
2018-09-25T06:54:21.438Z,17.70
2018-09-25T06:55:53.009Z,18.20
2018-09-25T06:57:24.589Z,15.80
2018-09-25T07:00:27.727Z,16.10
2018-09-25T07:01:59.402Z,17.10
2018-09-25T07:03:30.873Z,20.30
2018-09-25T07:05:02.444Z,18.10
2018-09-25T07:06:34.322Z,17.70
2018-09-25T07:08:05.890Z,17.10
2018-09-25T07:09:37.170Z,18.20
2018-09-25T07:11:08.735Z,18.00
2018-09-25T07:12:40.308Z,20.10
2018-09-25T07:14:11.880Z,20.10
2018-09-25T07:15:43.454Z,22.10
2018-09-25T07:17:15.025Z,22.40
2018-09-25T07:18:46.598Z,20.70
2018-09-25T07:20:18.421Z,19.70
2018-09-25T07:21:49.744Z,20.20
2018-09-25T07:23:21.316Z,18.10
2018-09-25T07:24:52.948Z,20.30
2018-09-25T07:26:24.462Z,20.40
2018-09-25T07:27:56.098Z,22.60
2018-09-25T07:29:27.608Z,21.30
2018-09-25T07:30:59.188Z,24.10
2018-09-25T07:32:30.753Z,23.00
2018-09-25T07:34:02.331Z,23.80
2018-09-25T07:35:33.899Z,22.20
2018-09-25T07:37:05.471Z,24.00
2018-09-25T07:38:37.244Z,25.40
2018-09-25T07:40:08.619Z,27.00
2018-09-25T07:43:11.761Z,28.40
2018-09-25T07:44:43.635Z,25.50
2018-09-25T07:46:14.908Z,27.20
2018-09-25T07:47:46.480Z,29.20
2018-09-25T07:49:18.051Z,27.70
2018-09-25T07:50:49.938Z,26.70
2018-09-25T07:52:21.195Z,29.40
2018-09-25T07:53:52.767Z,29.40
2018-09-25T07:55:24.376Z,31.80
2018-09-25T07:56:56.520Z,33.60
2018-09-25T07:58:27.485Z,37.80
2018-09-25T07:59:59.057Z,36.40
2018-09-25T08:01:30.629Z,37.40
2018-09-25T08:03:02.247Z,43.60
2018-09-25T08:04:33.772Z,39.30
2018-09-25T08:06:05.344Z,39.60
2018-09-25T08:07:36.916Z,43.50
2018-09-25T08:09:08.758Z,39.00
2018-09-25T08:10:40.060Z,46.30
2018-09-25T08:12:11.637Z,44.90
2018-09-25T08:15:14.919Z,54.60
2018-09-25T08:16:46.348Z,50.10
2018-09-25T08:18:17.919Z,60.90
2018-09-25T08:19:49.491Z,57.00
2018-09-25T08:21:21.221Z,63.90
2018-09-25T08:22:53.145Z,59.70
2018-09-25T08:24:24.206Z,65.60
2018-09-25T08:25:55.781Z,63.80
2018-09-25T08:27:27.347Z,65.10
2018-09-25T08:28:58.921Z,58.00
2018-09-25T08:30:30.492Z,49.00
2018-09-25T08:32:02.063Z,45.50
2018-09-25T08:33:33.736Z,35.20
2018-09-25T08:35:05.271Z,35.70
2018-09-25T08:36:36.777Z,32.60
2018-09-25T08:38:08.350Z,28.60
2018-09-25T08:39:40.220Z,29.70
2018-09-25T08:41:11.495Z,32.10
2018-09-25T08:42:43.063Z,25.80
2018-09-25T08:44:14.638Z,29.40
2018-09-25T08:47:17.878Z,28.00
2018-09-25T08:48:49.351Z,29.90
2018-09-25T08:50:20.921Z,25.60
2018-09-25T08:51:52.492Z,26.30
2018-09-25T08:53:24.228Z,27.60
2018-09-25T08:54:55.637Z,26.00
2018-09-25T08:56:27.209Z,25.50
2018-09-25T08:57:59.083Z,25.70
2018-09-25T08:59:30.351Z,29.00
2018-09-25T09:01:02.037Z,25.20
2018-09-25T09:02:33.494Z,27.50
2018-09-25T09:05:36.842Z,25.50
2018-09-25T09:07:08.230Z,25.60
2018-09-25T09:10:11.356Z,27.10
2018-09-25T09:11:43.026Z,26.10
2018-09-25T09:13:14.497Z,24.00
2018-09-25T09:14:46.310Z,27.30
2018-09-25T09:19:20.786Z,27.50
2018-09-25T09:20:52.358Z,25.80
2018-09-25T09:22:23.932Z,27.10
2018-09-25T09:23:55.503Z,26.60
2018-09-25T09:25:27.598Z,28.80
2018-09-25T09:26:59.155Z,27.90
2018-09-25T09:28:30.727Z,30.10
2018-09-25T09:30:01.830Z,25.20
2018-09-25T09:31:33.643Z,24.80
2018-09-25T09:33:05.204Z,25.30
2018-09-25T09:34:36.511Z,29.60
2018-09-25T09:37:39.655Z,22.90
2018-09-25T09:39:11.228Z,20.30
2018-09-25T09:45:17.621Z,21.30
2018-09-25T09:46:49.838Z,24.10
2018-09-25T09:48:21.693Z,21.80
2018-09-25T09:49:52.257Z,21.00
2018-09-25T09:52:56.389Z,17.70
2018-09-25T09:55:58.591Z,19.20
2018-09-25T09:57:30.737Z,19.70
2018-09-25T09:59:02.272Z,19.10
2018-09-25T10:00:33.459Z,24.20
2018-09-25T10:02:05.029Z,18.10
2018-09-25T10:03:36.399Z,17.90
2018-09-25T10:05:08.175Z,18.20
2018-09-25T10:06:39.590Z,19.00
2018-09-25T10:08:11.641Z,20.10
2018-09-25T10:11:14.368Z,18.30
2018-09-25T10:12:45.857Z,18.70
2018-09-25T10:14:17.421Z,16.70
2018-09-25T10:15:48.996Z,16.70
2018-09-25T10:17:20.677Z,17.00
2018-09-25T10:20:23.925Z,16.70
2018-09-25T10:21:55.514Z,14.60
2018-09-25T10:23:27.476Z,16.10
2018-09-25T10:24:58.912Z,15.40
2018-09-25T10:26:30.228Z,16.20
2018-09-25T10:29:33.584Z,18.10
2018-09-25T10:31:04.757Z,14.60
2018-09-25T10:34:08.163Z,14.80
2018-09-25T10:35:39.701Z,15.30
2018-09-25T10:37:11.068Z,15.90
2018-09-25T10:38:43.179Z,14.60
2018-09-25T10:40:14.249Z,10.90
2018-09-25T10:41:46.264Z,13.90
2018-09-25T10:43:17.384Z,13.00
2018-09-25T10:46:20.717Z,15.50
2018-09-25T10:47:52.844Z,13.40
2018-09-25T10:49:23.702Z,16.40
2018-09-25T10:52:27.631Z,19.50
2018-09-25T10:53:58.951Z,18.10
2018-09-25T10:55:30.096Z,17.40
2018-09-25T10:57:02.197Z,22.00
2018-09-25T10:58:34.350Z,23.50
2018-09-25T11:00:05.095Z,19.30
2018-09-25T11:01:36.649Z,16.80
2018-09-25T11:04:39.486Z,18.90
2018-09-25T11:07:43.758Z,17.40
2018-09-25T11:10:45.834Z,16.00
2018-09-25T11:12:17.743Z,16.60
2018-09-25T11:13:49.158Z,17.40
2018-09-25T11:16:52.255Z,19.80
2018-09-25T11:18:23.995Z,18.30
2018-09-25T11:19:55.507Z,17.00
2018-09-25T11:22:59.022Z,15.90
2018-09-25T11:24:29.998Z,20.60
2018-09-25T11:26:02.195Z,17.80
2018-09-25T11:27:33.517Z,16.30
2018-09-25T11:29:04.728Z,16.10
2018-09-25T11:30:36.306Z,14.10
2018-09-25T11:32:08.505Z,16.10
2018-09-25T11:33:39.763Z,14.70
2018-09-25T11:35:11.281Z,15.70
2018-09-25T11:36:43.482Z,13.40
2018-09-25T11:38:14.414Z,13.00
2018-09-25T11:39:46.086Z,14.00
2018-09-25T11:41:18.940Z,14.80
2018-09-25T11:42:49.160Z,19.00
2018-09-25T11:45:53.552Z,11.10
2018-09-25T11:47:23.797Z,12.10
2018-09-25T11:48:56.171Z,13.50
2018-09-25T11:50:26.842Z,14.80
2018-09-25T11:51:59.785Z,13.60
2018-09-25T11:53:30.191Z,15.00
2018-09-25T11:56:33.150Z,12.00
2018-09-25T11:58:04.730Z,14.70
2018-09-25T12:02:39.474Z,13.50
2018-09-25T12:04:12.273Z,11.60
2018-09-25T12:05:42.636Z,16.80
2018-09-25T12:07:14.217Z,16.90
2018-09-25T12:08:45.799Z,14.20
2018-09-25T12:11:49.565Z,17.00
2018-09-25T12:13:20.543Z,14.20
2018-09-25T12:14:52.126Z,17.20
2018-09-25T12:16:23.734Z,19.20
2018-09-25T12:19:27.279Z,19.00
2018-09-25T12:24:01.628Z,19.60
2018-09-25T12:25:33.661Z,17.20
2018-09-25T12:28:36.474Z,18.10
2018-09-25T12:30:07.964Z,17.40
2018-09-25T12:31:39.543Z,17.60
2018-09-25T12:33:11.171Z,18.40
2018-09-25T12:34:43.008Z,17.00
2018-09-25T12:37:46.896Z,16.20
2018-09-25T12:39:17.658Z,15.10
2018-09-25T12:40:49.275Z,15.30
2018-09-25T12:42:20.621Z,13.10
2018-09-25T12:45:23.991Z,13.10
2018-09-25T12:46:55.676Z,14.60
2018-09-25T12:49:58.541Z,12.60
2018-09-25T12:51:30.125Z,12.60
2018-09-25T12:53:01.711Z,12.90
2018-09-25T12:54:33.817Z,12.40
2018-09-25T12:57:37.553Z,15.30
2018-09-25T12:59:08.247Z,17.70
2018-09-25T13:00:39.628Z,19.60
2018-09-25T13:02:11.211Z,25.50
2018-09-25T13:03:42.794Z,30.80
2018-09-25T13:05:14.377Z,30.20
2018-09-25T13:08:18.065Z,36.90
2018-09-25T13:09:49.329Z,34.80
2018-09-25T13:14:23.872Z,31.60
2018-09-25T13:15:55.561Z,30.80
2018-09-25T13:17:27.038Z,31.60
2018-09-25T13:18:58.622Z,33.40
2018-09-25T13:20:30.728Z,32.10
2018-09-25T13:22:02.100Z,31.40
2018-09-25T13:25:05.519Z,34.20
2018-09-25T13:26:36.690Z,34.10
2018-09-25T13:28:08.254Z,33.80
2018-09-25T13:29:39.819Z,34.40
2018-09-25T13:31:11.644Z,38.50
2018-09-25T13:32:42.932Z,39.90
2018-09-25T13:37:18.611Z,38.90
2018-09-25T13:38:49.311Z,39.70
2018-09-25T13:40:20.821Z,34.60
2018-09-25T13:41:52.565Z,37.30
2018-09-25T13:43:23.992Z,33.60
2018-09-25T13:44:55.682Z,30.70
2018-09-25T13:46:27.456Z,33.00
2018-09-25T13:47:59.950Z,31.60
2018-09-25T13:49:30.279Z,31.70
2018-09-25T13:51:02.236Z,30.30
2018-09-25T13:52:33.717Z,30.00
2018-09-25T13:54:05.356Z,32.40
2018-09-25T13:55:36.766Z,36.60
2018-09-25T13:57:08.651Z,32.30
2018-09-25T13:58:39.824Z,29.90
2018-09-25T14:00:11.444Z,28.30
2018-09-25T14:01:43.639Z,25.10
2018-09-25T14:03:14.532Z,25.10
2018-09-25T14:04:46.098Z,22.90
2018-09-25T14:06:17.901Z,20.30
2018-09-25T14:07:49.878Z,21.90
2018-09-25T14:09:21.149Z,21.40
2018-09-25T14:12:24.274Z,21.50
2018-09-25T14:13:55.869Z,19.80
2018-09-25T14:16:58.972Z,20.30
2018-09-25T14:18:30.426Z,21.30
2018-09-25T14:20:01.976Z,22.00
2018-09-25T14:21:33.651Z,23.00
2018-09-25T14:23:05.179Z,24.30
2018-09-25T14:24:36.875Z,23.90
2018-09-25T14:26:08.503Z,22.40
2018-09-25T14:27:40.602Z,22.60
2018-09-25T14:29:11.625Z,23.20
2018-09-25T14:30:43.450Z,23.60
2018-09-25T14:33:46.512Z,24.80
2018-09-25T14:35:17.803Z,24.10
2018-09-25T14:36:49.381Z,25.70
2018-09-25T14:38:21.489Z,24.90
2018-09-25T14:41:24.141Z,24.70
2018-09-25T14:45:58.894Z,22.30
2018-09-25T14:47:30.685Z,22.40
2018-09-25T14:50:34.172Z,22.20
2018-09-25T14:52:05.444Z,22.50
2018-09-25T14:53:37.123Z,22.60
2018-09-25T14:55:09.550Z,22.90
2018-09-25T14:56:40.005Z,20.20
2018-09-25T14:58:11.941Z,20.50
2018-09-25T14:59:43.775Z,19.60
2018-09-25T15:01:14.786Z,19.20
2018-09-25T15:02:46.635Z,18.70
2018-09-25T15:04:17.975Z,18.80
2018-09-25T15:07:21.114Z,25.50
2018-09-25T15:10:24.292Z,23.50
2018-09-25T15:11:56.048Z,24.00
2018-09-25T15:13:27.832Z,23.00
2018-09-25T15:14:59.220Z,23.90
2018-09-25T15:16:30.617Z,20.50
2018-09-25T15:18:02.189Z,22.70
2018-09-25T15:19:33.776Z,21.20
2018-09-25T15:22:36.946Z,21.50
2018-09-25T15:24:08.733Z,22.50
2018-09-25T15:28:43.594Z,19.90
2018-09-25T15:30:14.958Z,22.20
2018-09-25T15:33:19.628Z,17.80
2018-09-25T15:37:52.803Z,19.40
2018-09-25T15:39:24.533Z,18.20
2018-09-25T15:40:55.990Z,19.60
2018-09-25T15:44:00.244Z,19.70
2018-09-25T15:45:30.731Z,19.00
2018-09-25T15:48:34.418Z,18.10
2018-09-25T15:50:05.482Z,19.20
2018-09-25T15:51:37.271Z,20.20
2018-09-25T15:53:08.652Z,18.40
2018-09-25T15:54:40.643Z,18.70
2018-09-25T15:56:11.975Z,16.30
2018-09-25T15:57:43.406Z,16.30
2018-09-25T15:59:15.196Z,17.50
2018-09-25T16:00:48.109Z,17.00
2018-09-25T16:02:18.605Z,17.60
2018-09-25T16:03:50.056Z,17.70
2018-09-25T16:05:21.530Z,21.40
2018-09-25T16:06:52.911Z,20.20
2018-09-25T16:08:24.809Z,21.00
2018-09-25T16:09:56.519Z,22.40
2018-09-25T16:11:27.980Z,20.80
2018-09-25T16:13:00.339Z,23.00
2018-09-25T16:14:32.086Z,24.60
2018-09-25T16:17:34.206Z,22.30
2018-09-25T16:19:06.062Z,20.20
2018-09-25T16:22:09.097Z,15.70
2018-09-25T16:25:12.010Z,15.90
2018-09-25T16:26:43.745Z,15.10
2018-09-25T16:28:15.335Z,14.70
2018-09-25T16:31:18.494Z,13.20
2018-09-25T16:32:50.738Z,13.70
2018-09-25T16:34:22.204Z,12.90
2018-09-25T16:35:53.324Z,14.10
2018-09-25T16:37:24.783Z,12.80
2018-09-25T16:40:28.030Z,14.80
2018-09-25T16:41:59.335Z,14.00
2018-09-25T16:43:31.122Z,14.50
2018-09-25T16:45:02.806Z,14.30
2018-09-25T16:46:34.087Z,13.50
2018-09-25T16:48:06.165Z,13.40
2018-09-25T16:49:37.256Z,13.00
2018-09-25T16:51:08.867Z,11.90
2018-09-25T16:52:40.526Z,11.80
2018-09-25T16:54:12.530Z,11.90
2018-09-25T16:55:43.896Z,14.00
2018-09-25T16:57:15.377Z,13.00
2018-09-25T16:58:47.299Z,12.90
2018-09-25T17:00:18.647Z,13.10
2018-09-25T17:03:21.513Z,15.40
2018-09-25T17:07:58.207Z,12.10
2018-09-25T17:09:27.862Z,11.30
2018-09-25T17:10:59.434Z,10.50
2018-09-25T17:12:31.221Z,10.50
2018-09-25T17:14:02.899Z,10.30
2018-09-25T17:17:05.772Z,12.00
2018-09-25T17:18:37.348Z,9.20
2018-09-25T17:20:09.132Z,9.70
2018-09-25T17:21:40.515Z,9.30
2018-09-25T17:23:12.402Z,10.50
2018-09-25T17:24:43.902Z,9.70
2018-09-25T17:26:15.566Z,10.20
2018-09-25T17:29:19.136Z,9.10
2018-09-25T17:30:50.010Z,7.80
2018-09-25T17:32:21.896Z,8.20
2018-09-25T17:33:53.179Z,7.10
2018-09-25T17:35:24.959Z,6.50
2018-09-25T17:36:56.338Z,5.60
2018-09-25T17:38:27.920Z,7.20
2018-09-25T17:39:59.501Z,8.10
2018-09-25T17:41:31.083Z,9.10
2018-09-25T17:43:02.871Z,9.30
2018-09-25T17:44:34.492Z,8.50
2018-09-25T17:46:05.869Z,10.00
2018-09-25T17:47:37.818Z,8.50
2018-09-25T17:49:09.541Z,9.40
2018-09-25T17:50:40.791Z,12.30
2018-09-25T17:52:12.223Z,13.70
2018-09-25T17:53:43.779Z,15.00
2018-09-25T17:55:15.305Z,17.10
2018-09-25T17:56:47.110Z,17.30
2018-09-25T17:58:18.515Z,18.20
2018-09-25T17:59:50.466Z,18.40
2018-09-25T18:01:21.737Z,17.30
2018-09-25T18:02:53.621Z,20.90
2018-09-25T18:04:25.184Z,19.50
2018-09-25T18:05:56.465Z,22.80
2018-09-25T18:07:28.255Z,21.90
2018-09-25T18:08:59.920Z,21.70
2018-09-25T18:10:31.302Z,23.50
2018-09-25T18:12:03.081Z,20.50
2018-09-25T18:13:34.384Z,20.70
2018-09-25T18:15:05.881Z,23.40
2018-09-25T18:16:37.470Z,23.70
2018-09-25T18:18:09.207Z,22.00
2018-09-25T18:19:40.936Z,20.60
2018-09-25T18:21:12.344Z,22.20
2018-09-25T18:22:43.787Z,20.60
2018-09-25T18:24:15.438Z,23.20
2018-09-25T18:25:47.003Z,22.20
2018-09-25T18:27:18.947Z,20.10
2018-09-25T18:28:50.073Z,21.00
2018-09-25T18:30:21.652Z,21.80
2018-09-25T18:31:53.234Z,24.10
2018-09-25T18:33:24.934Z,24.30
2018-09-25T18:34:56.606Z,22.40
2018-09-25T18:36:27.976Z,21.80
2018-09-25T18:37:59.860Z,21.80
2018-09-25T18:39:31.140Z,25.90
2018-09-25T18:42:34.297Z,22.20
2018-09-25T18:44:06.084Z,19.40
2018-09-25T18:45:37.614Z,22.70
2018-09-25T18:47:09.043Z,22.30
2018-09-25T18:48:40.927Z,19.20
2018-09-25T18:50:12.198Z,18.60
2018-09-25T18:53:15.357Z,19.40
2018-09-25T18:54:46.935Z,20.10
2018-09-25T18:59:22.017Z,18.80
2018-09-25T19:00:53.456Z,20.90
2018-09-25T19:02:24.853Z,22.60
2018-09-25T19:03:56.411Z,23.30
2018-09-25T19:05:28.257Z,24.50
2018-09-25T19:06:59.787Z,28.10
2018-09-25T19:08:31.189Z,29.70
2018-09-25T19:10:03.557Z,26.80
2018-09-25T19:11:34.421Z,29.50
2018-09-25T19:13:06.040Z,29.20
2018-09-25T19:14:37.456Z,31.40
2018-09-25T19:16:09.607Z,32.10
2018-09-25T19:17:40.809Z,30.20
2018-09-25T19:19:12.405Z,30.90
2018-09-25T19:20:44.388Z,32.50
2018-09-25T19:22:15.631Z,30.10
2018-09-25T19:23:47.148Z,30.40
2018-09-25T19:28:21.933Z,30.70
2018-09-25T19:29:53.223Z,28.60
2018-09-25T19:31:24.964Z,29.50
2018-09-25T19:32:56.378Z,29.00
2018-09-25T19:34:28.023Z,29.60
2018-09-25T19:37:31.145Z,30.00
2018-09-25T19:39:03.384Z,31.80
2018-09-25T19:40:34.545Z,33.10
2018-09-25T19:42:06.116Z,29.50
2018-09-25T19:43:37.645Z,33.10
2018-09-25T19:45:09.643Z,34.10
2018-09-25T19:46:40.676Z,37.60
2018-09-25T19:48:12.169Z,35.00
2018-09-25T19:49:43.777Z,37.60
2018-09-25T19:52:47.131Z,39.40
2018-09-25T19:54:18.472Z,35.70
2018-09-25T19:55:50.219Z,35.60
2018-09-25T19:57:21.607Z,37.00
2018-09-25T19:58:53.229Z,43.40
2018-09-25T20:00:24.822Z,35.60
2018-09-25T20:01:56.477Z,35.30
2018-09-25T20:03:27.908Z,36.10
2018-09-25T20:04:59.503Z,35.50
2018-09-25T20:06:31.902Z,31.40
2018-09-25T20:08:03.120Z,32.90
2018-09-25T20:09:35.351Z,32.80
2018-09-25T20:11:06.207Z,30.00
2018-09-25T20:12:37.354Z,29.30
2018-09-25T20:14:09.703Z,31.20
2018-09-25T20:15:40.574Z,27.90
2018-09-25T20:17:12.366Z,31.60
2018-09-25T20:18:44.682Z,29.30
2018-09-25T20:20:17.021Z,27.60
2018-09-25T20:21:47.508Z,23.80
2018-09-25T20:23:18.946Z,27.40
2018-09-25T20:24:50.693Z,24.00
2018-09-25T20:27:53.560Z,22.60
2018-09-25T20:29:24.749Z,25.90
2018-09-25T20:30:56.700Z,25.30
2018-09-25T20:32:28.032Z,24.30
2018-09-25T20:33:59.555Z,27.90
2018-09-25T20:35:31.179Z,26.80
2018-09-25T20:37:02.821Z,28.40
2018-09-25T20:40:05.943Z,31.80
2018-09-25T20:43:09.248Z,36.00
2018-09-25T20:44:40.491Z,40.40
2018-09-25T20:46:12.359Z,38.90
2018-09-25T20:47:43.675Z,46.40
2018-09-25T20:50:46.708Z,42.70
2018-09-25T20:52:18.281Z,42.70
2018-09-25T20:53:49.897Z,41.60
2018-09-25T20:55:21.485Z,40.00
2018-09-25T20:58:24.680Z,35.90
2018-09-25T20:59:56.171Z,33.90
2018-09-25T21:01:28.055Z,33.60
2018-09-25T21:02:59.340Z,35.40
2018-09-25T21:04:30.897Z,36.50
2018-09-25T21:06:02.467Z,33.30
2018-09-25T21:07:34.021Z,31.10
2018-09-25T21:09:05.596Z,36.50
2018-09-25T21:10:37.167Z,33.60
2018-09-25T21:12:08.742Z,31.30
2018-09-25T21:13:40.316Z,29.20
2018-09-25T21:15:11.904Z,35.00
2018-09-25T21:16:43.568Z,32.20
2018-09-25T21:18:15.038Z,32.10
2018-09-25T21:19:46.657Z,34.30
2018-09-25T21:21:18.281Z,31.20
2018-09-25T21:24:21.337Z,34.60
2018-09-25T21:25:52.913Z,31.50
2018-09-25T21:27:24.687Z,33.90
2018-09-25T21:30:27.935Z,33.10
2018-09-25T21:31:59.201Z,34.00
2018-09-25T21:33:30.788Z,33.60
2018-09-25T21:35:02.356Z,33.70
2018-09-25T21:36:34.033Z,36.40
2018-09-25T21:38:05.497Z,38.30
2018-09-25T21:41:08.645Z,36.80
2018-09-25T21:42:40.220Z,38.60
2018-09-25T21:44:11.797Z,36.10
2018-09-25T21:47:14.939Z,35.80
2018-09-25T21:48:46.547Z,37.50
2018-09-25T21:50:18.092Z,34.00
2018-09-25T21:51:49.755Z,35.10
2018-09-25T21:53:21.234Z,32.20
2018-09-25T21:56:24.481Z,36.40
2018-09-25T21:57:56.179Z,35.10
2018-09-25T21:59:27.529Z,32.10
2018-09-25T22:00:59.107Z,32.10
2018-09-25T22:02:30.678Z,32.30
2018-09-25T22:04:02.249Z,32.80
2018-09-25T22:05:33.823Z,29.20
2018-09-25T22:07:05.396Z,32.00
2018-09-25T22:08:36.971Z,33.40
2018-09-25T22:10:08.543Z,34.00
2018-09-25T22:11:40.178Z,30.40